Time;durP1;ratioP1;P1;durP2;ratioP2;P2;SDS_P1;SDS_P2;PMS_P1;PMS_P2;Temp;Humidity;BMP_temperature;BMP_pressure;BME280_temperature;BME280_humidity;BME280_pressure;Samples;Min_cycle;Max_cycle;Signal;HPM_P1;HPM_P2
2021/01/10 00:01:31;;;;;;;45.97;16.98;;;;;;;-7.16;100.00;96847.88;5019618;28;20042;-45
2021/01/10 00:03:58;;;;;;;40.47;15.43;;;;;;;-7.11;100.00;96853.78;5025953;28;20045;-47
2021/01/10 00:06:25;;;;;;;42.28;15.63;;;;;;;-7.14;100.00;96847.84;5029594;28;20053;-47
2021/01/10 00:08:52;;;;;;;67.75;19.60;;;;;;;-7.28;100.00;96851.50;5002023;28;20053;-46
2021/01/10 00:11:19;;;;;;;54.38;17.27;;;;;;;-7.26;100.00;96842.09;5027569;28;20054;-44
2021/01/10 00:13:47;;;;;;;63.20;17.30;;;;;;;-7.34;100.00;96840.53;5017524;28;20054;-43
2021/01/10 00:16:14;;;;;;;75.88;20.55;;;;;;;-7.30;100.00;96834.47;5023090;28;20049;-47
2021/01/10 00:18:40;;;;;;;64.68;14.25;;;;;;;-7.44;100.00;96847.50;5021613;28;20124;-46
2021/01/10 00:21:08;;;;;;;84.68;18.17;;;;;;;-7.47;100.00;96847.56;5023747;28;20039;-46
2021/01/10 00:23:34;;;;;;;77.53;16.73;;;;;;;-7.57;100.00;96844.34;5023031;28;20060;-48
2021/01/10 00:26:02;;;;;;;120.93;21.60;;;;;;;-7.54;100.00;96836.56;5026949;28;20572;-43
2021/01/10 00:28:29;;;;;;;93.32;19.45;;;;;;;-7.35;100.00;96837.13;5021493;28;20128;-44
2021/01/10 00:30:56;;;;;;;62.80;17.40;;;;;;;-7.06;100.00;96835.75;5020915;28;20048;-45
2021/01/10 00:33:23;;;;;;;48.70;15.52;;;;;;;-6.87;100.00;96839.66;5025839;28;20045;-46
2021/01/10 00:35:50;;;;;;;88.30;20.55;;;;;;;-6.79;100.00;96836.94;5026954;28;20076;-47
2021/01/10 00:38:17;;;;;;;103.40;19.83;;;;;;;-7.13;100.00;96834.16;5019317;28;20071;-44
2021/01/10 00:40:44;;;;;;;110.57;20.17;;;;;;;-7.37;100.00;96836.28;5021142;28;20042;-44
2021/01/10 00:43:12;;;;;;;83.80;17.90;;;;;;;-7.36;100.00;96837.13;5025156;28;20053;-48
2021/01/10 00:45:39;;;;;;;89.78;16.05;;;;;;;-7.41;100.00;96834.66;5021601;28;20061;-46
2021/01/10 00:48:08;;;;;;;101.05;17.40;;;;;;;-7.30;100.00;96837.03;5038793;28;20042;-44
2021/01/10 00:50:39;;;;;;;84.28;18.48;;;;;;;-7.36;100.00;96835.44;5023258;28;20410;-43
2021/01/10 00:53:08;;;;;;;71.43;16.48;;;;;;;-7.57;100.00;96841.78;5022609;28;20052;-48
2021/01/10 00:55:38;;;;;;;89.28;17.02;;;;;;;-7.63;100.00;96839.31;5007200;28;20045;-47
2021/01/10 00:58:06;;;;;;;64.25;15.55;;;;;;;-7.43;100.00;96836.41;5006645;28;20423;-44
2021/01/10 01:00:34;;;;;;;62.97;15.60;;;;;;;-7.51;100.00;96843.38;5006589;28;20045;-43
2021/01/10 01:03:02;;;;;;;55.58;16.02;;;;;;;-7.43;100.00;96839.81;5032119;28;20530;-44
2021/01/10 01:05:29;;;;;;;57.08;14.38;;;;;;;-7.37;100.00;96835.44;5021883;28;20099;-43
2021/01/10 01:07:57;;;;;;;55.00;14.73;;;;;;;-7.38;100.00;96841.44;5021235;28;20049;-44
2021/01/10 01:10:47;;;;;;;59.50;15.37;;;;;;;-7.43;100.00;96844.09;5022537;28;20048;-44
2021/01/10 01:13:14;;;;;;;54.22;16.33;;;;;;;-7.41;100.00;96835.50;5024607;28;20508;-43
2021/01/10 01:15:42;;;;;;;71.07;15.52;;;;;;;-7.74;100.00;96841.19;5013064;28;20042;-46
2021/01/10 01:18:09;;;;;;;93.45;19.85;;;;;;;-7.94;100.00;96838.97;5020213;28;20048;-44
2021/01/10 01:20:37;;;;;;;49.50;13.93;;;;;;;-7.97;100.00;96841.56;5014662;28;20077;-45
2021/01/10 01:23:05;;;;;;;45.38;14.35;;;;;;;-7.86;100.00;96843.94;5009039;28;20156;-48
2021/01/10 01:25:44;;;;;;;58.28;14.13;;;;;;;-7.74;100.00;96851.41;5021995;28;20087;-45
2021/01/10 01:28:11;;;;;;;47.83;14.45;;;;;;;-7.79;100.00;96845.53;5024978;28;20095;-47
2021/01/10 01:30:38;;;;;;;46.80;15.70;;;;;;;-7.91;100.00;96842.31;5023791;28;20054;-44
2021/01/10 01:33:05;;;;;;;66.68;16.52;;;;;;;-7.98;100.00;96848.41;5028195;28;20048;-46
2021/01/10 01:35:32;;;;;;;44.10;13.05;;;;;;;-7.93;100.00;96859.41;5023534;28;20527;-44
2021/01/10 01:38:00;;;;;;;43.80;13.32;;;;;;;-7.95;100.00;96862.84;5021631;28;20077;-47
2021/01/10 01:40:27;;;;;;;41.17;13.98;;;;;;;-7.89;99.86;96850.78;5023854;28;20081;-46
2021/01/10 01:42:54;;;;;;;35.55;13.65;;;;;;;-7.77;98.61;96862.56;5024075;28;20130;-42
2021/01/10 01:45:21;;;;;;;37.40;13.15;;;;;;;-7.64;98.18;96858.09;5022484;28;20120;-48
2021/01/10 01:47:48;;;;;;;40.80;14.55;;;;;;;-7.74;98.55;96852.28;5018479;28;20554;-45
2021/01/10 01:50:16;;;;;;;37.65;13.07;;;;;;;-7.75;100.00;96862.53;5021030;28;20050;-43
2021/01/10 01:52:42;;;;;;;65.75;15.30;;;;;;;-7.78;99.89;96867.69;5020716;28;20108;-46
2021/01/10 01:55:11;;;;;;;40.47;14.07;;;;;;;-7.72;100.00;96862.50;5021003;28;20107;-45
2021/01/10 01:57:39;;;;;;;35.03;14.65;;;;;;;-7.68;100.00;96871.81;5021828;28;20053;-45
2021/01/10 02:00:07;;;;;;;35.80;14.75;;;;;;;-7.84;99.26;96866.09;5027900;28;20037;-44
2021/01/10 02:02:42;;;;;;;34.50;13.70;;;;;;;-7.86;99.65;96861.88;5021996;28;20046;-45
2021/01/10 02:05:11;;;;;;;31.83;12.90;;;;;;;-8.03;100.00;96870.63;5018882;28;20041;-46
2021/01/10 02:07:42;;;;;;;44.60;12.55;;;;;;;-8.10;100.00;96871.59;5020106;28;20667;-46
2021/01/10 02:10:12;;;;;;;71.63;15.30;;;;;;;-8.24;100.00;96865.81;5019718;28;20057;-45
2021/01/10 02:12:40;;;;;;;;;;;;;;;-8.23;100.00;96867.50;5044923;22;20037;-57
2021/01/10 02:15:09;;;;;;;34.40;11.38;;;;;;;-8.27;100.00;96876.94;5067053;28;19924;-50
2021/01/10 02:17:39;;;;;;;51.70;13.73;;;;;;;-8.18;100.00;96875.97;5071764;28;20036;-53
2021/01/10 02:20:08;;;;;;;49.00;12.63;;;;;;;-7.89;100.00;96865.31;5086575;28;20052;-52
2021/01/10 02:22:43;;;;;;;52.13;13.55;;;;;;;-7.78;100.00;96868.53;5078437;28;20036;-49
2021/01/10 02:25:12;;;;;;;60.75;14.27;;;;;;;-7.98;100.00;96875.69;5060376;28;20048;-48
2021/01/10 02:27:41;;;;;;;56.35;12.85;;;;;;;-8.18;100.00;96869.16;5067903;28;20049;-53
2021/01/10 02:30:10;;;;;;;55.53;13.85;;;;;;;-8.22;100.00;96866.66;5068760;28;20049;-55
2021/01/10 02:32:40;;;;;;;48.13;13.75;;;;;;;-8.19;100.00;96872.59;5064105;28;20037;-50
2021/01/10 02:35:09;;;;;;;47.67;13.43;;;;;;;-8.30;100.00;96868.47;5066978;28;20529;-55
2021/01/10 02:37:59;;;;;;;47.92;11.15;;;;;;;-8.49;100.00;96863.63;5055455;28;20041;-50
2021/01/10 02:40:33;;;;;;;38.65;12.30;;;;;;;-8.70;100.00;96858.78;5061918;28;20061;-55
2021/01/10 02:43:06;;;;;;;35.00;11.07;;;;;;;-8.50;100.00;96866.19;5062297;28;20490;-51
2021/01/10 02:45:41;;;;;;;48.67;12.60;;;;;;;-8.56;100.00;96858.63;5070412;28;20056;-51
2021/01/10 02:48:08;;;;;;;29.98;11.00;;;;;;;-8.51;100.00;96862.78;5068041;28;20202;-55
2021/01/10 02:50:36;;;;;;;33.88;10.77;;;;;;;-8.52;100.00;96865.38;5061413;28;20048;-53
2021/01/10 02:53:04;;;;;;;22.98;10.75;;;;;;;-8.31;100.00;96865.06;5062186;28;20044;-54
2021/01/10 02:55:32;;;;;;;28.90;10.98;;;;;;;-8.35;100.00;96868.53;5062523;28;20073;-49
2021/01/10 02:58:04;;;;;;;30.65;10.93;;;;;;;-8.17;100.00;96868.28;5057822;28;20040;-51
2021/01/10 03:00:32;;;;;;;33.72;11.15;;;;;;;-7.90;100.00;96867.03;5069543;28;20052;-52
2021/01/10 03:03:01;;;;;;;38.83;10.90;;;;;;;-7.87;100.00;96876.38;5069852;28;20033;-52
2021/01/10 03:05:30;;;;;;;50.67;11.95;;;;;;;-8.28;100.00;96875.25;5062554;28;20636;-51
2021/01/10 03:07:57;;;;;;;49.60;11.05;;;;;;;-8.53;100.00;96872.22;5058886;28;20110;-52
2021/01/10 03:10:24;;;;;;;33.50;11.70;;;;;;;-8.18;100.00;96865.75;5059522;28;20062;-54
2021/01/10 03:12:52;;;;;;;33.75;10.35;;;;;;;-8.18;100.00;96868.31;5063574;28;20043;-50
2021/01/10 03:15:19;;;;;;;44.85;12.77;;;;;;;-8.21;100.00;96861.50;5064266;28;20037;-52
2021/01/10 03:17:47;;;;;;;46.33;11.85;;;;;;;-8.21;100.00;96861.50;5071312;28;20036;-52
2021/01/10 03:20:17;;;;;;;50.80;12.00;;;;;;;-8.21;100.00;96855.56;5065831;28;20060;-53
2021/01/10 03:22:45;;;;;;;39.65;12.75;;;;;;;-7.99;100.00;96859.47;5068471;28;20406;-60
2021/01/10 03:25:14;;;;;;;35.35;11.55;;;;;;;-7.98;100.00;96860.31;5062384;28;20392;-57
2021/01/10 03:27:41;;;;;;;31.38;10.05;;;;;;;-7.94;100.00;96859.44;5071947;28;20119;-54
2021/01/10 03:30:15;;;;;;;31.45;10.20;;;;;;;-7.78;100.00;96853.19;5061801;28;20074;-61
2021/01/10 03:32:43;;;;;;;27.45;10.75;;;;;;;-7.77;100.00;96862.56;5068497;28;20119;-56
2021/01/10 03:35:13;;;;;;;68.30;13.30;;;;;;;-8.16;100.00;96853.75;5058123;28;20069;-59
2021/01/10 03:37:40;;;;;;;32.50;11.38;;;;;;;-8.03;100.00;96855.28;5068345;28;20052;-54
2021/01/10 03:40:08;;;;;;;30.25;10.77;;;;;;;-8.13;100.00;96851.16;5062363;28;20044;-57
2021/01/10 03:42:36;;;;;;;50.75;14.27;;;;;;;-8.40;100.00;96863.50;5068237;28;20120;-52
2021/01/10 03:45:03;;;;;;;40.63;10.52;;;;;;;-8.05;100.00;96862.16;5068952;28;20148;-58
2021/01/10 03:47:31;;;;;;;35.58;10.98;;;;;;;-7.84;100.00;96858.41;5070706;28;20040;-51
2021/01/10 03:49:58;;;;;;;27.30;8.88;;;;;;;-7.68;100.00;96859.00;5071464;28;20052;-49
2021/01/10 03:52:25;;;;;;;44.22;11.23;;;;;;;-7.65;100.00;96859.81;5058803;28;20079;-57
2021/01/10 03:54:52;;;;;;;27.48;8.45;;;;;;;-7.63;100.00;96853.84;5066121;28;20385;-51
2021/01/10 03:57:19;;;;;;;22.90;7.10;;;;;;;-7.71;100.00;96852.25;5069500;28;20049;-53
2021/01/10 03:59:46;;;;;;;22.83;6.43;;;;;;;-7.59;100.00;96850.34;5047254;28;20048;-50
2021/01/10 04:02:14;;;;;;;21.40;7.10;;;;;;;-7.66;100.00;96852.16;5036245;28;20029;-53
2021/01/10 04:04:42;;;;;;;25.20;7.57;;;;;;;-7.38;100.00;96855.09;5041323;28;20073;-54
2021/01/10 04:07:09;;;;;;;27.23;7.10;;;;;;;-7.54;100.00;96859.63;5045928;28;20519;-54
2021/01/10 04:09:36;;;;;;;26.58;7.70;;;;;;;-7.47;100.00;96850.97;5067135;28;20463;-61
2021/01/10 04:12:04;;;;;;;36.20;7.57;;;;;;;-7.31;100.00;96849.00;5067212;28;20040;-58
2021/01/10 04:14:31;;;;;;;21.60;7.75;;;;;;;-7.14;100.00;96842.72;5063868;28;20064;-55
2021/01/10 04:16:58;;;;;;;31.35;8.52;;;;;;;-7.13;100.00;96840.13;5066597;28;20205;-56
2021/01/10 04:19:25;;;;;;;33.58;8.55;;;;;;;-6.96;100.00;96847.50;5072165;28;20078;-55
2021/01/10 04:21:53;;;;;;;22.65;7.28;;;;;;;-6.78;100.00;96843.72;5063023;28;20040;-50
2021/01/10 04:24:20;;;;;;;29.98;7.38;;;;;;;-6.75;100.00;96839.38;5065521;28;20052;-54
2021/01/10 04:26:49;;;;;;;83.30;13.27;;;;;;;-6.64;100.00;96843.47;5063132;28;20416;-56
2021/01/10 04:29:19;;;;;;;85.82;13.13;;;;;;;-6.54;100.00;96850.09;5066444;28;20419;-52
2021/01/10 04:31:46;;;;;;;244.52;16.17;;;;;;;-6.73;100.00;96849.63;5060917;28;20418;-54
2021/01/10 04:34:13;;;;;;;65.90;12.48;;;;;;;-6.40;100.00;96862.63;5067653;28;20430;-52
2021/01/10 04:36:40;;;;;;;60.92;13.23;;;;;;;-6.31;99.97;96858.16;5067567;28;20419;-59
2021/01/10 04:39:08;;;;;;;181.75;16.25;;;;;;;-6.36;99.39;96843.75;5066053;28;20485;-53
2021/01/10 04:41:36;;;;;;;106.28;13.43;;;;;;;-6.12;99.10;96856.06;5062595;28;20794;-53
2021/01/10 04:44:04;;;;;;;77.07;14.00;;;;;;;-6.09;99.05;96845.72;5061623;28;20430;-53
2021/01/10 04:46:31;;;;;;;113.80;13.60;;;;;;;-6.40;98.34;96845.53;5066139;28;20440;-55
2021/01/10 04:48:58;;;;;;;250.60;17.00;;;;;;;-6.37;99.59;96845.44;5063158;28;20434;-55
2021/01/10 04:51:26;;;;;;;101.70;14.70;;;;;;;-6.28;100.00;96852.13;5068015;28;20905;-54
2021/01/10 04:53:56;;;;;;;103.03;15.20;;;;;;;-6.23;99.80;96845.16;5060835;28;20456;-54
2021/01/10 04:56:29;;;;;;;171.43;15.48;;;;;;;-6.36;99.40;96843.75;5065800;28;20416;-54
2021/01/10 04:59:01;;;;;;;214.88;16.90;;;;;;;-6.11;98.47;96844.91;5067489;28;20412;-49
2021/01/10 05:01:32;;;;;;;168.48;16.52;;;;;;;-6.41;100.00;96837.88;5063599;28;20483;-55
2021/01/10 05:04:01;;;;;;;140.57;15.35;;;;;;;-6.31;100.00;96837.63;5066694;28;20419;-60
2021/01/10 05:06:28;;;;;;;119.50;15.02;;;;;;;-6.35;100.00;96848.00;5070565;28;20419;-56
2021/01/10 05:08:56;;;;;;;254.00;18.25;;;;;;;-6.40;100.00;96844.69;5058071;28;20420;-50
2021/01/10 05:11:23;;;;;;;110.25;15.90;;;;;;;-6.19;100.00;96845.94;5062268;28;20469;-53
2021/01/10 05:13:51;;;;;;;96.73;16.00;;;;;;;-6.12;100.00;96843.22;5062381;28;20494;-51
2021/01/10 05:16:19;;;;;;;114.22;14.48;;;;;;;-5.96;100.00;96841.13;5066151;28;20417;-56
2021/01/10 05:18:51;;;;;;;256.48;17.70;;;;;;;-6.36;100.00;96844.59;5063795;28;20514;-51
2021/01/10 05:21:19;;;;;;;143.90;16.08;;;;;;;-6.30;100.00;96848.72;5067664;28;20533;-55
2021/01/10 05:23:50;;;;;;;113.05;14.50;;;;;;;-6.07;100.00;96845.69;5061140;28;20469;-54
2021/01/10 05:26:19;;;;;;;108.80;13.97;;;;;;;-6.02;100.00;96844.69;5055919;28;20465;-50
2021/01/10 05:28:46;;;;;;;116.63;15.50;;;;;;;-5.97;100.00;96842.84;5065514;28;20419;-56
2021/01/10 05:31:31;;;;;;;102.82;15.60;;;;;;;-5.88;100.00;96846.91;5059781;28;20423;-56
2021/01/10 05:33:59;;;;;;;338.52;20.58;;;;;;;-6.15;100.00;96840.72;5066115;28;20380;-50
2021/01/10 05:36:27;;;;;;;91.72;14.75;;;;;;;-6.10;100.00;96844.00;5061943;28;20422;-53
2021/01/10 05:38:55;;;;;;;177.93;17.40;;;;;;;-5.95;100.00;96847.09;5062933;28;20798;-54
2021/01/10 05:41:23;;;;;;;185.95;17.80;;;;;;;-5.89;100.00;96847.78;5058585;28;20412;-55
2021/01/10 05:44:00;;;;;;;206.77;18.58;;;;;;;-6.14;100.00;96842.41;5062286;28;20412;-51
2021/01/10 05:46:31;;;;;;;148.18;16.63;;;;;;;-6.05;100.00;96844.78;5061203;28;20438;-56
2021/01/10 05:49:00;;;;;;;111.20;15.30;;;;;;;-5.91;100.00;96847.00;5068908;28;20406;-50
2021/01/10 05:51:31;;;;;;;129.95;15.98;;;;;;;-5.99;100.00;96841.19;5063884;28;20421;-52
2021/01/10 05:53:58;;;;;;;234.73;18.30;;;;;;;-6.07;100.00;96849.06;5057379;28;20467;-49
2021/01/10 05:56:25;;;;;;;159.30;17.05;;;;;;;-5.99;100.00;96839.50;5060851;28;20507;-52
2021/01/10 05:58:56;;;;;;;263.23;19.83;;;;;;;-6.19;100.00;96846.81;5063420;28;20429;-49
2021/01/10 06:01:24;;;;;;;177.13;18.15;;;;;;;-6.28;100.00;96849.56;5061214;28;20438;-55
2021/01/10 06:03:54;;;;;;;80.25;17.45;;;;;;;-6.26;100.00;96858.09;5066199;28;21091;-50
2021/01/10 06:06:21;;;;;;;149.13;18.83;;;;;;;-6.26;100.00;96850.38;5060877;28;20446;-53
2021/01/10 06:08:48;;;;;;;101.25;18.88;;;;;;;-6.02;100.00;96851.53;5070783;28;20512;-51
2021/01/10 06:11:19;;;;;;;120.32;19.42;;;;;;;-6.30;100.00;96854.72;5061295;28;20833;-50
2021/01/10 06:13:48;;;;;;;90.90;18.73;;;;;;;-6.22;100.00;96857.13;5059256;28;20459;-56
2021/01/10 06:16:15;;;;;;;122.13;18.80;;;;;;;-6.13;100.00;96859.47;5062685;28;20412;-52
2021/01/10 06:18:45;;;;;;;92.22;17.38;;;;;;;-6.32;100.00;96851.34;5067101;28;20457;-50
2021/01/10 06:21:17;;;;;;;94.90;16.40;;;;;;;-6.36;100.00;96857.44;5056028;28;20447;-49
2021/01/10 06:23:45;;;;;;;111.40;17.02;;;;;;;-6.37;100.00;96860.84;5065028;28;20424;-59
2021/01/10 06:26:13;;;;;;;74.28;16.60;;;;;;;-6.16;100.00;96864.66;5056924;28;20439;-61
2021/01/10 06:28:42;;;;;;;146.27;16.55;;;;;;;-6.26;100.00;96861.50;5057114;28;20790;-50
2021/01/10 06:31:10;;;;;;;90.78;16.48;;;;;;;-6.21;100.00;96861.38;5065638;28;20589;-53
2021/01/10 06:33:41;;;;;;;93.72;16.98;;;;;;;-6.23;100.00;96868.25;5064213;28;20455;-51
2021/01/10 06:36:08;;;;;;;62.72;16.85;;;;;;;-6.27;100.00;96877.75;5062463;28;20512;-56
2021/01/10 06:38:37;;;;;;;72.15;15.88;;;;;;;-6.29;100.00;96870.97;5066253;28;20422;-52
2021/01/10 06:41:25;;;;;;;106.70;16.45;;;;;;;-6.19;100.00;96877.59;5056337;28;20981;-55
2021/01/10 06:43:56;;;;;;;145.80;17.93;;;;;;;-6.16;100.00;96876.66;5057299;28;20495;-54
2021/01/10 06:46:24;;;;;;;69.40;15.30;;;;;;;-6.27;100.00;96876.91;5066034;28;20415;-52
2021/01/10 06:48:52;;;;;;;88.88;16.13;;;;;;;-5.89;100.00;96886.28;5062075;28;20537;-49
2021/01/10 06:51:22;;;;;;;95.85;16.33;;;;;;;-5.96;100.00;96895.06;5066567;28;20423;-53
2021/01/10 06:53:49;;;;;;;50.30;15.23;;;;;;;-5.91;100.00;96898.34;5062470;28;20482;-51
2021/01/10 06:56:17;;;;;;;71.03;16.08;;;;;;;-5.95;100.00;96893.31;5059902;28;20427;-52
2021/01/10 06:59:02;;;;;;;67.55;16.05;;;;;;;-6.01;100.00;96890.03;5062619;28;20415;-64
2021/01/10 07:01:59;;;;;;;80.50;16.27;;;;;;;-5.99;100.00;96898.56;5062204;28;20399;-50
2021/01/10 07:04:56;;;;;;;57.28;16.45;;;;;;;-5.98;100.00;96900.22;5053294;28;20441;-48
2021/01/10 07:07:37;;;;;;;58.13;17.20;;;;;;;-5.93;100.00;96904.41;5055861;28;20423;-53
2021/01/10 07:10:08;;;;;;;50.77;16.30;;;;;;;-5.53;100.00;96905.16;5060422;28;20423;-53
2021/01/10 07:12:35;;;;;;;45.93;16.37;;;;;;;-5.65;99.95;96904.59;5069320;28;20428;-51
2021/01/10 07:15:27;;;;;;;37.47;16.27;;;;;;;-5.73;100.00;96903.06;5062282;28;20447;-53
2021/01/10 07:18:05;;;;;;;41.20;17.52;;;;;;;-5.53;100.00;96899.19;5068691;28;20511;-52
2021/01/10 07:20:34;;;;;;;40.83;17.63;;;;;;;-5.56;99.75;96907.81;5063718;28;20429;-50
2021/01/10 07:23:30;;;;;;;40.88;17.58;;;;;;;-5.93;98.47;96897.56;5065232;28;20421;-51
2021/01/10 07:25:59;;;;;;;44.58;18.92;;;;;;;-5.69;99.21;96893.56;5059864;28;20934;-52
2021/01/10 07:28:37;;;;;;;41.08;17.83;;;;;;;-6.18;97.65;96893.84;5062223;28;20475;-54
2021/01/10 07:31:18;;;;;;;41.72;18.10;;;;;;;-6.39;98.38;96901.09;5063466;28;20435;-50
2021/01/10 07:34:10;;;;;;;38.72;17.60;;;;;;;-6.11;98.37;96893.66;5057465;28;20508;-53
2021/01/10 07:36:46;;;;;;;40.47;18.17;;;;;;;-6.47;97.87;96898.69;5059714;28;20425;-51
2021/01/10 07:39:14;;;;;;;36.78;17.42;;;;;;;-6.33;97.83;96902.69;5054821;28;20970;-50
2021/01/10 07:41:42;;;;;;;36.30;17.33;;;;;;;-6.32;97.72;96900.09;5062030;28;20432;-57
2021/01/10 07:44:09;;;;;;;35.22;17.15;;;;;;;-6.22;96.66;96895.63;5062846;28;20416;-59
2021/01/10 07:47:00;;;;;;;38.60;18.45;;;;;;;-6.05;96.29;96893.53;5065324;28;20440;-50
2021/01/10 07:49:51;;;;;;;36.10;17.70;;;;;;;-5.80;95.78;96900.66;5064563;28;20422;-52
2021/01/10 07:52:51;;;;;;;35.05;17.80;;;;;;;-5.92;94.01;96894.06;5056524;28;20457;-52
2021/01/10 07:55:22;;;;;;;40.42;20.20;;;;;;;-5.92;94.32;96898.38;5057128;28;20427;-56
2021/01/10 07:57:51;;;;;;;42.22;21.38;;;;;;;-5.95;95.82;96911.28;5061363;28;20467;-53
2021/01/10 08:00:23;;;;;;;37.13;19.33;;;;;;;-5.95;95.41;96909.59;5068455;28;20415;-57
2021/01/10 08:02:55;;;;;;;35.75;18.30;;;;;;;-6.11;95.27;96909.06;5076996;28;20457;-52
2021/01/10 08:05:25;;;;;;;37.67;19.10;;;;;;;-5.78;94.89;96919.44;5061895;28;20840;-59
2021/01/10 08:07:57;;;;;;;34.42;17.38;;;;;;;-5.69;94.73;96913.25;5065826;28;20423;-55
2021/01/10 08:10:26;;;;;;;36.05;17.95;;;;;;;-5.30;94.45;96926.88;5060340;28;20877;-51
2021/01/10 08:12:53;;;;;;;34.38;17.33;;;;;;;-5.47;93.69;96926.44;5060902;28;21113;-58
2021/01/10 08:15:20;;;;;;;37.22;17.88;;;;;;;-5.52;94.88;96917.13;5084503;22;20430;-46
2021/01/10 08:17:49;;;;;;;37.10;17.80;;;;;;;-5.19;93.20;96921.50;5080983;28;20473;-46
2021/01/10 08:20:16;;;;;;;37.83;18.27;;;;;;;-5.18;93.17;96921.47;5059121;28;20982;-44
2021/01/10 08:22:45;;;;;;;37.38;19.55;;;;;;;-4.86;92.24;96922.38;5077136;28;20415;-44
2021/01/10 08:25:21;;;;;;;42.08;20.15;;;;;;;-4.69;91.90;96914.22;5084288;28;20412;-45
2021/01/10 08:27:48;;;;;;;35.10;17.27;;;;;;;-4.55;91.43;96918.09;5065131;28;20863;-46
2021/01/10 08:30:18;;;;;;;36.70;17.85;;;;;;;-4.57;90.51;96916.47;5043958;28;20447;-43
2021/01/10 08:32:45;;;;;;;35.20;17.60;;;;;;;-4.28;89.75;96910.50;5055192;28;20425;-44
2021/01/10 08:35:12;;;;;;;31.95;16.25;;;;;;;-4.46;89.11;96917.03;5071008;28;20780;-50
2021/01/10 08:37:39;;;;;;;32.05;17.02;;;;;;;-4.10;87.88;96920.28;5077362;28;20422;-45
2021/01/10 08:40:09;;;;;;;32.00;17.70;;;;;;;-3.74;86.44;96917.53;5069278;28;20863;-47
2021/01/10 08:42:36;;;;;;;32.13;17.10;;;;;;;-4.18;86.89;96921.41;5074626;28;20404;-49
2021/01/10 08:45:20;;;;;;;31.80;17.15;;;;;;;-3.96;86.10;96921.59;5062709;28;20445;-45
2021/01/10 08:47:48;;;;;;;31.15;16.52;;;;;;;-3.90;85.56;96917.13;5061075;28;20757;-46
2021/01/10 08:50:16;;;;;;;32.35;17.02;;;;;;;-3.85;85.96;96914.44;5069840;28;20416;-49
2021/01/10 08:52:54;;;;;;;32.95;17.30;;;;;;;-3.53;86.07;96920.34;5072706;28;20947;-50
2021/01/10 08:55:34;;;;;;;30.92;16.77;;;;;;;-3.31;85.12;96912.75;5073587;28;20955;-48
2021/01/10 08:58:03;;;;;;;32.42;17.48;;;;;;;-2.86;84.76;96910.41;5068022;28;20439;-47
2021/01/10 09:00:32;;;;;;;36.70;20.02;;;;;;;-2.93;84.21;96912.34;5079569;28;20443;-49
2021/01/10 09:03:15;;;;;;;32.85;18.95;;;;;;;-3.50;84.65;96913.34;5071795;28;20946;-48
2021/01/10 09:05:44;;;;;;;32.95;18.40;;;;;;;-3.92;86.02;96915.50;5066106;28;20414;-49
2021/01/10 09:08:19;;;;;;;32.28;17.73;;;;;;;-3.86;87.08;96910.16;5073156;28;20928;-49
2021/01/10 09:10:53;;;;;;;30.77;16.88;;;;;;;-3.77;85.95;96921.94;5083052;28;20772;-49
2021/01/10 09:13:22;;;;;;;33.40;17.95;;;;;;;-4.01;86.35;96923.50;5075150;28;20412;-46
2021/01/10 09:15:54;;;;;;;31.23;17.30;;;;;;;-3.63;86.09;96928.34;5080300;28;20426;-47
2021/01/10 09:18:23;;;;;;;31.47;17.37;;;;;;;-2.68;83.99;96922.69;5079134;28;20969;-48
2021/01/10 09:20:55;;;;;;;30.58;17.63;;;;;;;-2.65;81.79;96929.47;5085237;28;20422;-47
2021/01/10 09:23:22;;;;;;;28.70;16.77;;;;;;;-2.87;82.63;96929.38;5078764;28;20427;-47
2021/01/10 09:25:49;;;;;;;27.90;16.77;;;;;;;-3.54;82.63;96934.09;5078016;28;20919;-51
2021/01/10 09:28:18;;;;;;;27.33;17.02;;;;;;;-3.15;83.56;96930.28;5049548;28;20418;-45
2021/01/10 09:30:46;;;;;;;27.42;16.80;;;;;;;-3.24;84.17;96922.81;5058655;28;20422;-47
2021/01/10 09:33:14;;;;;;;29.58;16.73;;;;;;;-3.44;84.04;96933.78;5064589;28;20432;-48
2021/01/10 09:35:42;;;;;;;30.08;17.02;;;;;;;-2.96;83.42;96930.53;5059452;28;20416;-50
2021/01/10 09:38:10;;;;;;;25.77;15.77;;;;;;;-3.27;82.98;96929.81;5066898;28;20760;-49
2021/01/10 09:40:39;;;;;;;28.55;17.17;;;;;;;-2.64;81.98;96919.09;5069341;28;20760;-46
2021/01/10 09:43:06;;;;;;;26.77;16.60;;;;;;;-1.98;80.14;96923.66;5040376;28;20455;-47
2021/01/10 09:45:35;;;;;;;25.80;16.13;;;;;;;-1.98;78.83;96915.91;5081540;28;20422;-45
2021/01/10 09:48:06;;;;;;;27.00;17.13;;;;;;;-2.63;80.71;96918.19;5076223;28;20969;-50
2021/01/10 09:50:34;;;;;;;28.38;17.35;;;;;;;-2.87;81.79;96919.03;5052765;28;20415;-51
2021/01/10 09:53:01;;;;;;;26.90;16.17;;;;;;;-2.68;81.79;96911.53;5079596;28;20497;-44
2021/01/10 09:55:45;;;;;;;27.05;16.40;;;;;;;-2.22;79.89;96910.75;5074101;28;20402;-49
2021/01/10 09:58:14;;;;;;;28.87;17.87;;;;;;;-1.70;78.89;96913.13;5072157;28;20833;-48
2021/01/10 10:00:55;;;;;;;28.83;18.17;;;;;;;-1.56;78.63;96903.09;5050470;28;20416;-49
2021/01/10 10:03:23;;;;;;;28.15;17.48;;;;;;;-1.84;79.00;96905.88;5078267;28;20414;-46
2021/01/10 10:05:58;;;;;;;27.40;17.13;;;;;;;-2.00;78.75;96905.59;5073754;28;20420;-48
2021/01/10 10:08:25;;;;;;;27.95;17.00;;;;;;;-2.31;80.74;96907.63;5077846;28;20422;-50
2021/01/10 10:10:52;;;;;;;28.65;17.58;;;;;;;-2.59;80.62;96916.34;5068353;28;20503;-44
2021/01/10 10:13:25;;;;;;;28.38;17.15;;;;;;;-1.97;80.82;96905.50;5046758;28;20404;-48
2021/01/10 10:15:54;;;;;;;26.55;16.38;;;;;;;-1.71;79.47;96896.78;5057334;28;20879;-46
2021/01/10 10:18:23;;;;;;;26.63;16.50;;;;;;;-1.45;77.56;96907.84;5063952;28;20419;-48
2021/01/10 10:20:51;;;;;;;26.13;16.30;;;;;;;-1.20;76.30;96899.97;5075282;28;20445;-50
2021/01/10 10:23:19;;;;;;;28.17;17.45;;;;;;;-0.33;73.68;96896.28;5058835;28;20495;-47
2021/01/10 10:25:47;;;;;;;27.13;16.98;;;;;;;-0.41;72.45;96889.72;5055190;28;22591;-47
2021/01/10 10:28:15;;;;;;;27.58;17.30;;;;;;;-0.52;70.87;96898.84;5059763;28;20959;-48
2021/01/10 10:30:44;;;;;;;28.70;18.00;;;;;;;-0.03;71.14;96894.06;5069749;28;20774;-49
2021/01/10 10:33:12;;;;;;;28.67;18.20;;;;;;;0.13;71.85;96885.59;5045176;28;20497;-48
2021/01/10 10:35:40;;;;;;;29.83;19.17;;;;;;;0.34;71.31;96894.13;5074546;28;20418;-47
2021/01/10 10:38:10;;;;;;;31.17;19.27;;;;;;;-0.34;72.75;96886.81;5069350;28;20414;-47
2021/01/10 10:40:39;;;;;;;30.92;19.88;;;;;;;-0.04;72.80;96876.81;5059544;28;20469;-51
2021/01/10 10:43:06;;;;;;;32.55;20.80;;;;;;;-0.07;72.17;96887.34;5069220;28;20426;-51
2021/01/10 10:45:33;;;;;;;32.67;20.00;;;;;;;0.29;70.93;96875.34;5056499;28;20423;-50
2021/01/10 10:48:00;;;;;;;34.17;21.05;;;;;;;0.36;72.05;96863.78;5052994;28;20520;-51
2021/01/10 10:50:27;;;;;;;31.80;20.05;;;;;;;1.13;69.19;96864.31;5067428;28;20408;-48
2021/01/10 10:52:54;;;;;;;30.75;19.27;;;;;;;1.86;66.76;96851.06;5057028;28;20442;-45
2021/01/10 10:55:22;;;;;;;31.30;19.63;;;;;;;2.15;64.70;96852.09;5061474;28;20537;-46
2021/01/10 10:57:50;;;;;;;30.77;19.60;;;;;;;1.67;65.83;96846.81;5080718;28;20418;-45
2021/01/10 11:00:17;;;;;;;34.83;20.50;;;;;;;1.56;64.78;96846.56;5065210;28;20419;-48
2021/01/10 11:02:47;;;;;;;30.98;19.33;;;;;;;2.09;64.84;96835.03;5074945;28;20805;-50
2021/01/10 11:05:15;;;;;;;31.02;20.05;;;;;;;1.69;64.48;96828.56;5074472;28;20410;-48
2021/01/10 11:07:42;;;;;;;28.75;18.40;;;;;;;1.83;63.77;96828.66;5076283;28;20414;-49
2021/01/10 11:10:10;;;;;;;32.22;19.58;;;;;;;1.23;65.48;96828.34;5043183;28;20419;-48
2021/01/10 11:12:37;;;;;;;30.97;19.33;;;;;;;1.84;63.61;96821.69;5062366;28;20811;-46
2021/01/10 11:15:07;;;;;;;31.08;19.05;;;;;;;1.48;64.51;96820.13;5084714;28;20417;-47
2021/01/10 11:17:34;;;;;;;34.17;20.45;;;;;;;0.87;66.32;96824.09;5080682;28;20503;-47
2021/01/10 11:20:01;;;;;;;35.58;21.17;;;;;;;1.24;67.26;96821.38;5074388;28;20450;-51
2021/01/10 11:22:34;;;;;;;41.70;22.35;;;;;;;2.57;63.87;96811.59;5078417;28;20438;-47
2021/01/10 11:25:02;;;;;;;44.05;23.63;;;;;;;2.70;63.20;96794.34;5073632;28;20843;-48